LEBZ/BJZ METAR and TAF weather

Enter ICAO airport designator
Station Type Date Time Source
LEBZ METAR 2022/01/23 13:00 UTC NOAA

LEBZ 231300Z 07010KT CAVOK 14/05 Q1023


Station Type Date Time Source
LEBZ Decoded METAR 2022/01/23 13:00 UTC NOAA

Badajoz / Talavera La Real, Spain (LEBZ) 38-53N 006-49W 192M
Jan 23, 2022 - 08:00 AM EST / 2022.01.23 1300 UTC
Wind: from the ENE (070 degrees) at 12 MPH (10 KT):0
Visibility: greater than 7 mile(s):0
Temperature: 57 F (14 C)
Dew Point: 41 F (5 C)
Relative Humidity: 54%
Pressure (altimeter): 30.21 in. Hg (1023 hPa)
ob: LEBZ 231300Z 07010KT CAVOK 14/05 Q1023
cycle: 13

Station Type Date Time Source
LEBZ TAF 2022/01/23 09:30 UTC NOAA

TAF LEBZ 230800Z 2309/2409 09010KT CAVOK TX16/2315Z TN01/2406Z
TEMPO 2318/2323 03005KT

Example: see airport list